Time;durP1;ratioP1;P1;durP2;ratioP2;P2;SDS_P1;SDS_P2;PMS_P1;PMS_P2;Temp;Humidity;BMP_temperature;BMP_pressure;BME280_temperature;BME280_humidity;BME280_pressure;Samples;Min_cycle;Max_cycle;Signal;HPM_P1;HPM_P2
2021/05/08 00:02:03;;;;;;;2.17;1.17;;;;;;;;;;4983659;28;20124;-72
2021/05/08 00:04:30;;;;;;;2.38;1.10;;;;;;;;;;4981336;28;20130;-73
2021/05/08 00:06:58;;;;;;;1.27;0.82;;;;;;;;;;4982940;28;20202;-72
2021/05/08 00:09:25;;;;;;;2.20;1.17;;;;;;;;;;4982258;28;20058;-73
2021/05/08 00:11:54;;;;;;;1.58;0.88;;;;;;;;;;4980482;28;20057;-73
2021/05/08 00:14:21;;;;;;;1.67;0.90;;;;;;;;;;4994018;28;20119;-73
2021/05/08 00:16:47;;;;;;;1.80;0.95;;;;;;;;;;4981561;28;20080;-73
2021/05/08 00:19:13;;;;;;;1.45;1.02;;;;;;;;;;4981582;28;20148;-72
2021/05/08 00:21:40;;;;;;;1.88;1.00;;;;;;;;;;4983096;28;20575;-72
2021/05/08 00:24:07;;;;;;;1.95;0.90;;;;;;;;;;4980411;28;20108;-72
2021/05/08 00:26:33;;;;;;;2.15;1.10;;;;;;;;;;4982287;28;20083;-72
2021/05/08 00:28:59;;;;;;;2.10;0.88;;;;;;;;;;4983805;28;20541;-73
2021/05/08 00:31:26;;;;;;;2.40;1.00;;;;;;;;;;4984215;28;20073;-73
2021/05/08 00:33:52;;;;;;;2.13;1.10;;;;;;;;;;4982443;28;20066;-72
2021/05/08 00:36:18;;;;;;;1.45;0.80;;;;;;;;;;4981932;28;20074;-72
2021/05/08 00:38:45;;;;;;;2.42;0.98;;;;;;;;;;4981392;28;20720;-72
2021/05/08 00:41:11;;;;;;;3.33;1.00;;;;;;;;;;4984152;28;20061;-73
2021/05/08 00:43:38;;;;;;;1.92;0.90;;;;;;;;;;4978044;28;20085;-73
2021/05/08 00:46:04;;;;;;;2.05;0.93;;;;;;;;;;4981056;28;20073;-72
2021/05/08 00:48:31;;;;;;;2.03;0.90;;;;;;;;;;4981120;28;20141;-73
2021/05/08 00:50:58;;;;;;;1.40;0.98;;;;;;;;;;4983686;28;20062;-73
2021/05/08 00:53:24;;;;;;;1.98;1.00;;;;;;;;;;4983692;28;20039;-73
2021/05/08 00:55:51;;;;;;;1.38;0.82;;;;;;;;;;4980596;28;20050;-73
2021/05/08 00:58:18;;;;;;;1.55;0.90;;;;;;;;;;4979909;28;20072;-72
2021/05/08 01:00:45;;;;;;;2.35;1.13;;;;;;;;;;4980246;28;20093;-73
2021/05/08 01:03:12;;;;;;;2.40;1.10;;;;;;;;;;4983341;28;20127;-73
2021/05/08 01:05:39;;;;;;;1.73;1.00;;;;;;;;;;4974327;28;20150;-73
2021/05/08 01:08:05;;;;;;;2.20;0.85;;;;;;;;;;4981283;28;20069;-73
2021/05/08 01:10:33;;;;;;;2.15;0.90;;;;;;;;;;4981497;28;20085;-74
2021/05/08 01:13:00;;;;;;;2.40;0.90;;;;;;;;;;4982863;28;20058;-73
2021/05/08 01:15:28;;;;;;;1.42;0.80;;;;;;;;;;4983326;28;20066;-74
2021/05/08 01:17:54;;;;;;;2.55;0.95;;;;;;;;;;4992965;28;20057;-73
2021/05/08 01:20:21;;;;;;;1.98;1.15;;;;;;;;;;4978707;28;20062;-73
2021/05/08 01:22:51;;;;;;;2.25;0.88;;;;;;;;;;4977710;28;20066;-73
2021/05/08 01:25:20;;;;;;;1.20;0.80;;;;;;;;;;4980753;28;20070;-73
2021/05/08 01:27:47;;;;;;;1.73;1.08;;;;;;;;;;4975497;28;20140;-72
2021/05/08 01:30:15;;;;;;;3.05;1.20;;;;;;;;;;4983041;28;20075;-72
2021/05/08 01:32:41;;;;;;;1.50;0.93;;;;;;;;;;4974875;28;20078;-72
2021/05/08 01:35:08;;;;;;;2.08;0.80;;;;;;;;;;4982841;28;20057;-72
2021/05/08 01:37:35;;;;;;;2.22;1.10;;;;;;;;;;4981599;28;20042;-72
2021/05/08 01:40:05;;;;;;;2.50;0.93;;;;;;;;;;4996875;28;20490;-72
2021/05/08 01:42:32;;;;;;;2.17;1.00;;;;;;;;;;4980903;28;20141;-73
2021/05/08 01:44:58;;;;;;;1.77;0.95;;;;;;;;;;4984987;28;20153;-72
2021/05/08 01:47:24;;;;;;;2.00;0.95;;;;;;;;;;4985173;28;20069;-72
2021/05/08 01:49:51;;;;;;;1.95;0.90;;;;;;;;;;4985316;28;20068;-72
2021/05/08 01:52:17;;;;;;;3.15;1.20;;;;;;;;;;4984737;28;20074;-72
2021/05/08 01:54:44;;;;;;;2.25;1.00;;;;;;;;;;4982195;28;20043;-73
2021/05/08 01:57:10;;;;;;;2.92;0.90;;;;;;;;;;4986207;28;20046;-73
2021/05/08 01:59:37;;;;;;;2.22;1.00;;;;;;;;;;4985088;28;20050;-73
2021/05/08 02:02:04;;;;;;;2.28;1.10;;;;;;;;;;4986397;28;20204;-73
2021/05/08 02:04:30;;;;;;;2.90;1.05;;;;;;;;;;4985176;28;20034;-74
2021/05/08 02:06:57;;;;;;;2.20;0.90;;;;;;;;;;4981243;28;20067;-73
2021/05/08 02:09:23;;;;;;;1.90;1.00;;;;;;;;;;4984794;28;20066;-74
2021/05/08 02:11:50;;;;;;;2.40;0.90;;;;;;;;;;4984176;28;20045;-74
2021/05/08 02:14:16;;;;;;;2.58;0.95;;;;;;;;;;4986214;28;20462;-73
2021/05/08 02:16:43;;;;;;;2.70;1.10;;;;;;;;;;4984652;28;20506;-74
2021/05/08 02:19:09;;;;;;;2.05;1.00;;;;;;;;;;4985602;28;20275;-73
2021/05/08 02:21:35;;;;;;;1.60;0.90;;;;;;;;;;4983873;28;20510;-73
2021/05/08 02:24:02;;;;;;;1.83;0.90;;;;;;;;;;4995697;28;20188;-74
2021/05/08 02:26:28;;;;;;;2.80;1.00;;;;;;;;;;4985109;28;20073;-73
2021/05/08 02:28:55;;;;;;;1.95;0.95;;;;;;;;;;4995078;28;20066;-73
2021/05/08 02:31:21;;;;;;;2.40;1.10;;;;;;;;;;4998671;28;20157;-73
2021/05/08 02:33:47;;;;;;;2.83;0.98;;;;;;;;;;4983045;28;20074;-73
2021/05/08 02:36:14;;;;;;;1.60;1.00;;;;;;;;;;4986424;28;20080;-73
2021/05/08 02:38:40;;;;;;;2.10;1.02;;;;;;;;;;4978901;28;20074;-73
2021/05/08 02:41:07;;;;;;;2.13;0.90;;;;;;;;;;4986105;28;20054;-73
2021/05/08 02:43:33;;;;;;;1.75;1.00;;;;;;;;;;4983652;28;20069;-73
2021/05/08 02:45:59;;;;;;;2.08;1.05;;;;;;;;;;4985740;28;20573;-73
2021/05/08 02:48:26;;;;;;;1.40;0.90;;;;;;;;;;4985091;28;20065;-74
2021/05/08 02:50:52;;;;;;;2.13;1.08;;;;;;;;;;4982241;28;20543;-73
2021/05/08 02:53:19;;;;;;;2.45;1.20;;;;;;;;;;4982457;28;20066;-73
2021/05/08 02:55:45;;;;;;;1.45;0.90;;;;;;;;;;4985171;28;20057;-73
2021/05/08 02:58:11;;;;;;;3.45;1.27;;;;;;;;;;4983748;28;20098;-73
2021/05/08 03:00:38;;;;;;;2.53;0.90;;;;;;;;;;4983481;28;20069;-73
2021/05/08 03:03:04;;;;;;;2.00;0.80;;;;;;;;;;4982115;28;20034;-73
2021/05/08 03:05:31;;;;;;;2.95;1.10;;;;;;;;;;4980275;28;20058;-74
2021/05/08 03:07:57;;;;;;;2.85;0.90;;;;;;;;;;4984073;28;20081;-73
2021/05/08 03:10:23;;;;;;;1.98;0.95;;;;;;;;;;4983945;28;20109;-73
2021/05/08 03:12:50;;;;;;;1.15;0.80;;;;;;;;;;4982012;28;20072;-74
2021/05/08 03:15:16;;;;;;;2.78;0.98;;;;;;;;;;4980968;28;20189;-74
2021/05/08 03:17:43;;;;;;;1.88;1.00;;;;;;;;;;4983509;28;20069;-73
2021/05/08 03:20:09;;;;;;;1.52;0.80;;;;;;;;;;4985335;28;20057;-73
2021/05/08 03:22:36;;;;;;;2.58;0.90;;;;;;;;;;4980482;28;20068;-75
2021/05/08 03:25:02;;;;;;;2.42;1.30;;;;;;;;;;4984956;28;20493;-73
2021/05/08 03:27:29;;;;;;;2.08;1.00;;;;;;;;;;4985078;28;20132;-73
2021/05/08 03:29:55;;;;;;;1.80;1.10;;;;;;;;;;4981847;28;20287;-73
2021/05/08 03:32:21;;;;;;;2.33;0.90;;;;;;;;;;4984008;28;20093;-73
2021/05/08 03:34:48;;;;;;;1.77;0.93;;;;;;;;;;4982632;28;20061;-73
2021/05/08 03:37:14;;;;;;;1.52;1.00;;;;;;;;;;4995998;28;20213;-74
2021/05/08 03:39:41;;;;;;;1.67;0.80;;;;;;;;;;4982130;28;20058;-74
2021/05/08 03:42:07;;;;;;;1.80;0.80;;;;;;;;;;4983199;28;20124;-73
2021/05/08 03:44:34;;;;;;;2.75;1.00;;;;;;;;;;4983400;28;20073;-74
2021/05/08 03:47:00;;;;;;;2.13;1.27;;;;;;;;;;4978462;28;20049;-73
2021/05/08 03:49:26;;;;;;;2.25;1.00;;;;;;;;;;4998185;28;20058;-73
2021/05/08 03:51:58;;;;;;;3.13;1.05;;;;;;;;;;4981943;28;20062;-74
2021/05/08 03:54:25;;;;;;;1.63;0.90;;;;;;;;;;4983306;28;20148;-73
2021/05/08 03:56:51;;;;;;;1.85;0.90;;;;;;;;;;4972085;28;20062;-73
2021/05/08 03:59:18;;;;;;;1.90;0.93;;;;;;;;;;4983818;28;20078;-74
2021/05/08 04:01:44;;;;;;;1.77;0.80;;;;;;;;;;4983168;28;20065;-74
2021/05/08 04:04:11;;;;;;;2.60;0.93;;;;;;;;;;4983776;28;20065;-73
2021/05/08 04:06:37;;;;;;;1.58;0.80;;;;;;;;;;4981267;28;20505;-73
2021/05/08 04:09:06;;;;;;;1.80;0.80;;;;;;;;;;4980661;28;20636;-73
2021/05/08 04:11:33;;;;;;;2.10;1.10;;;;;;;;;;4982704;28;20061;-74
2021/05/08 04:13:59;;;;;;;1.98;0.80;;;;;;;;;;4984385;28;20065;-73
2021/05/08 04:16:25;;;;;;;2.05;1.08;;;;;;;;;;4984045;28;20456;-73
2021/05/08 04:18:52;;;;;;;1.95;0.90;;;;;;;;;;4980994;28;20049;-74
2021/05/08 04:21:18;;;;;;;1.63;0.70;;;;;;;;;;4980366;28;20058;-73
2021/05/08 04:23:45;;;;;;;1.02;0.60;;;;;;;;;;4980200;28;20408;-73
2021/05/08 04:26:11;;;;;;;1.35;0.77;;;;;;;;;;4983751;28;20062;-73
2021/05/08 04:28:38;;;;;;;2.22;1.00;;;;;;;;;;4978117;28;20675;-73
2021/05/08 04:31:04;;;;;;;2.25;1.00;;;;;;;;;;4983738;28;20090;-73
2021/05/08 04:33:30;;;;;;;2.00;0.80;;;;;;;;;;4978285;28;20073;-75
2021/05/08 04:35:57;;;;;;;2.47;0.90;;;;;;;;;;4982696;28;20078;-73
2021/05/08 04:38:23;;;;;;;1.65;0.77;;;;;;;;;;4983910;28;20101;-73
2021/05/08 04:40:56;;;;;;;2.35;0.95;;;;;;;;;;4981608;28;20087;-72
2021/05/08 04:43:22;;;;;;;1.50;0.80;;;;;;;;;;4982019;28;20090;-73
2021/05/08 04:45:49;;;;;;;1.52;0.70;;;;;;;;;;4981803;28;20066;-73
2021/05/08 04:48:22;;;;;;;2.92;1.00;;;;;;;;;;4981278;28;20100;-73
2021/05/08 04:50:49;;;;;;;1.38;0.80;;;;;;;;;;4980899;28;20212;-73
2021/05/08 04:53:15;;;;;;;3.05;1.13;;;;;;;;;;4997687;28;20046;-73
2021/05/08 04:55:42;;;;;;;1.30;0.90;;;;;;;;;;4982454;28;20139;-72
2021/05/08 04:58:08;;;;;;;1.33;0.93;;;;;;;;;;4982819;28;20062;-73
2021/05/08 05:00:34;;;;;;;3.03;0.90;;;;;;;;;;4974702;28;20108;-73
2021/05/08 05:03:01;;;;;;;3.00;0.95;;;;;;;;;;4983119;28;20050;-72
2021/05/08 05:05:27;;;;;;;1.83;0.93;;;;;;;;;;4981422;28;20066;-73
2021/05/08 05:07:54;;;;;;;3.20;1.00;;;;;;;;;;4981121;28;20084;-74
2021/05/08 05:10:20;;;;;;;2.53;0.90;;;;;;;;;;4983178;28;20065;-73
2021/05/08 05:12:48;;;;;;;2.35;1.25;;;;;;;;;;4981714;28;20070;-73
2021/05/08 05:15:16;;;;;;;1.25;0.70;;;;;;;;;;4965757;28;20042;-74
2021/05/08 05:17:43;;;;;;;1.73;1.05;;;;;;;;;;4983268;28;20077;-74
2021/05/08 05:20:10;;;;;;;1.23;0.73;;;;;;;;;;5000533;28;20086;-72
2021/05/08 05:22:37;;;;;;;1.58;1.00;;;;;;;;;;4984727;28;20073;-73
2021/05/08 05:25:03;;;;;;;2.03;1.00;;;;;;;;;;4986431;28;20368;-73
2021/05/08 05:27:30;;;;;;;3.90;1.00;;;;;;;;;;4985431;28;20438;-73
2021/05/08 05:29:57;;;;;;;1.83;0.90;;;;;;;;;;4986559;28;20042;-73
2021/05/08 05:32:23;;;;;;;2.28;1.08;;;;;;;;;;4984922;28;20486;-73
2021/05/08 05:34:50;;;;;;;2.92;1.00;;;;;;;;;;4985832;28;20112;-73
2021/05/08 05:37:17;;;;;;;1.92;1.00;;;;;;;;;;4986080;28;20076;-73
2021/05/08 05:39:44;;;;;;;2.67;1.20;;;;;;;;;;4984557;28;20069;-73
2021/05/08 05:42:10;;;;;;;1.50;0.90;;;;;;;;;;4984036;28;20038;-73
2021/05/08 05:44:37;;;;;;;1.58;0.95;;;;;;;;;;4984222;28;20492;-73
2021/05/08 05:47:04;;;;;;;1.65;0.85;;;;;;;;;;5011576;28;20215;-72
2021/05/08 05:49:30;;;;;;;2.83;0.93;;;;;;;;;;4986000;28;20475;-75
2021/05/08 05:51:57;;;;;;;2.38;1.13;;;;;;;;;;4984686;28;20721;-72
2021/05/08 05:54:23;;;;;;;3.08;1.23;;;;;;;;;;4985791;28;20073;-73
2021/05/08 05:56:50;;;;;;;2.28;1.20;;;;;;;;;;4982694;28;20066;-72
2021/05/08 05:59:16;;;;;;;2.60;1.00;;;;;;;;;;4985339;28;20073;-73
2021/05/08 06:01:42;;;;;;;1.73;0.80;;;;;;;;;;4986032;28;20058;-73
2021/05/08 06:04:09;;;;;;;2.85;1.10;;;;;;;;;;4985426;28;20145;-73
2021/05/08 06:06:35;;;;;;;2.17;0.98;;;;;;;;;;4981768;28;20061;-73
2021/05/08 06:09:02;;;;;;;2.85;1.00;;;;;;;;;;4982511;28;20062;-72
2021/05/08 06:11:28;;;;;;;2.90;1.00;;;;;;;;;;4984663;28;20050;-73
2021/05/08 06:13:55;;;;;;;2.25;1.20;;;;;;;;;;4976743;28;20058;-73
2021/05/08 06:16:21;;;;;;;3.55;1.00;;;;;;;;;;5001003;28;20073;-74
2021/05/08 06:18:47;;;;;;;4.28;1.30;;;;;;;;;;4985650;28;20074;-73
2021/05/08 06:21:14;;;;;;;2.88;1.15;;;;;;;;;;4983706;28;20572;-73
2021/05/08 06:23:40;;;;;;;2.75;1.20;;;;;;;;;;4964667;28;20071;-74
2021/05/08 06:26:06;;;;;;;4.55;1.30;;;;;;;;;;4979552;28;20062;-73
2021/05/08 06:28:33;;;;;;;2.50;1.17;;;;;;;;;;4984271;28;20061;-74
2021/05/08 06:30:59;;;;;;;3.20;1.25;;;;;;;;;;4985659;28;20469;-74
2021/05/08 06:33:26;;;;;;;3.03;1.30;;;;;;;;;;4963902;28;20132;-73
2021/05/08 06:35:52;;;;;;;4.32;1.50;;;;;;;;;;4981533;28;20073;-73
2021/05/08 06:38:19;;;;;;;3.65;1.17;;;;;;;;;;4983185;28;20556;-73
2021/05/08 06:40:45;;;;;;;2.20;1.10;;;;;;;;;;4983156;28;20073;-74
2021/05/08 06:43:11;;;;;;;2.83;1.30;;;;;;;;;;4983314;28;20034;-72
2021/05/08 06:45:38;;;;;;;4.55;1.45;;;;;;;;;;4993711;28;20792;-73
2021/05/08 06:48:06;;;;;;;5.00;1.30;;;;;;;;;;4983919;28;20068;-72
2021/05/08 06:50:33;;;;;;;4.60;1.30;;;;;;;;;;4981047;28;20062;-73
2021/05/08 06:52:59;;;;;;;4.07;1.30;;;;;;;;;;4983845;28;20062;-72
2021/05/08 06:55:25;;;;;;;2.22;1.40;;;;;;;;;;4983196;28;20583;-72
2021/05/08 06:57:53;;;;;;;3.10;1.20;;;;;;;;;;4981193;28;20180;-72
2021/05/08 07:00:19;;;;;;;2.55;1.20;;;;;;;;;;4982340;28;20083;-72
2021/05/08 07:02:46;;;;;;;3.85;1.20;;;;;;;;;;4982149;28;20066;-73
2021/05/08 07:05:12;;;;;;;4.75;1.38;;;;;;;;;;4965095;28;20070;-72
2021/05/08 07:07:39;;;;;;;3.63;1.30;;;;;;;;;;4979093;28;20038;-73
2021/05/08 07:10:06;;;;;;;1.98;1.20;;;;;;;;;;4981709;28;20050;-73
2021/05/08 07:12:32;;;;;;;2.22;1.10;;;;;;;;;;4978881;28;20061;-73
2021/05/08 07:14:59;;;;;;;3.55;1.20;;;;;;;;;;4983444;28;20137;-72
2021/05/08 07:17:25;;;;;;;2.90;1.25;;;;;;;;;;4991233;28;20146;-73
2021/05/08 07:19:52;;;;;;;3.88;1.20;;;;;;;;;;4978790;28;20069;-73
2021/05/08 07:22:18;;;;;;;6.30;1.80;;;;;;;;;;4980943;28;20069;-73
2021/05/08 07:24:45;;;;;;;3.88;1.40;;;;;;;;;;4975111;28;20474;-72
2021/05/08 07:27:11;;;;;;;3.17;1.33;;;;;;;;;;4983252;28;20070;-76
2021/05/08 07:29:38;;;;;;;3.22;1.10;;;;;;;;;;4961856;28;20129;-75
2021/05/08 07:32:04;;;;;;;2.75;1.33;;;;;;;;;;4983228;28;20112;-74
2021/05/08 07:34:31;;;;;;;4.82;1.35;;;;;;;;;;4981659;28;20449;-74
2021/05/08 07:36:57;;;;;;;3.10;1.40;;;;;;;;;;4980647;28;20058;-73
2021/05/08 07:39:24;;;;;;;5.13;1.50;;;;;;;;;;4983802;28;20538;-75
2021/05/08 07:41:50;;;;;;;4.43;1.40;;;;;;;;;;4981848;28;21337;-74
2021/05/08 07:44:17;;;;;;;3.72;1.42;;;;;;;;;;4994924;28;20074;-74
2021/05/08 07:46:43;;;;;;;2.70;1.30;;;;;;;;;;4993625;28;20058;-71
2021/05/08 07:49:10;;;;;;;3.58;1.20;;;;;;;;;;4990316;28;20065;-75
2021/05/08 07:51:36;;;;;;;2.25;1.42;;;;;;;;;;4995637;28;20142;-76
2021/05/08 07:54:03;;;;;;;3.03;1.10;;;;;;;;;;4995972;28;20050;-76
2021/05/08 07:56:32;;;;;;;2.88;1.40;;;;;;;;;;4981923;28;20061;-75
2021/05/08 07:58:58;;;;;;;5.35;1.40;;;;;;;;;;4976999;28;21742;-75
2021/05/08 08:01:25;;;;;;;4.22;1.40;;;;;;;;;;4998911;28;20062;-75
2021/05/08 08:03:51;;;;;;;5.20;1.40;;;;;;;;;;4983377;28;20037;-75
2021/05/08 08:06:18;;;;;;;8.20;1.48;;;;;;;;;;4981222;28;20057;-75
2021/05/08 08:08:44;;;;;;;3.05;1.30;;;;;;;;;;4982566;28;20227;-75
2021/05/08 08:11:10;;;;;;;3.15;1.20;;;;;;;;;;4983616;28;20117;-75
2021/05/08 08:13:37;;;;;;;3.60;1.45;;;;;;;;;;4981831;28;20112;-74
2021/05/08 08:16:03;;;;;;;3.22;1.38;;;;;;;;;;4984101;28;20065;-73
2021/05/08 08:18:30;;;;;;;3.55;1.50;;;;;;;;;;4982290;28;20157;-79
2021/05/08 08:20:56;;;;;;;5.72;1.38;;;;;;;;;;4960228;28;20105;-78
2021/05/08 08:23:23;;;;;;;3.40;1.30;;;;;;;;;;4983212;28;20120;-78
2021/05/08 08:25:50;;;;;;;3.70;1.23;;;;;;;;;;4983761;28;20070;-79
2021/05/08 08:28:16;;;;;;;3.33;1.15;;;;;;;;;;4972631;28;20108;-77
2021/05/08 08:30:43;;;;;;;4.45;1.65;;;;;;;;;;4978605;28;20080;-76
2021/05/08 08:33:09;;;;;;;6.25;1.63;;;;;;;;;;4979888;28;20066;-77
2021/05/08 08:35:36;;;;;;;3.92;1.30;;;;;;;;;;4982048;28;20455;-76
2021/05/08 08:38:02;;;;;;;4.20;1.30;;;;;;;;;;4979873;28;20153;-77
2021/05/08 08:40:29;;;;;;;4.45;1.10;;;;;;;;;;4985272;28;20034;-76
2021/05/08 08:42:55;;;;;;;3.80;1.60;;;;;;;;;;4980144;28;20031;-75
2021/05/08 08:45:22;;;;;;;7.45;1.38;;;;;;;;;;4982996;28;20042;-71
2021/05/08 08:47:48;;;;;;;3.58;1.38;;;;;;;;;;4976265;28;20066;-72
2021/05/08 08:50:15;;;;;;;5.85;1.63;;;;;;;;;;4982108;28;20470;-72
2021/05/08 08:52:42;;;;;;;3.90;1.60;;;;;;;;;;4987127;28;20058;-72
2021/05/08 08:55:09;;;;;;;4.03;1.40;;;;;;;;;;4982804;28;20065;-72
2021/05/08 08:57:38;;;;;;;5.70;1.60;;;;;;;;;;4982570;28;20628;-72
2021/05/08 09:00:08;;;;;;;4.25;1.30;;;;;;;;;;4981640;28;20132;-72
2021/05/08 09:02:34;;;;;;;5.20;1.40;;;;;;;;;;4977988;28;20117;-73
2021/05/08 09:05:01;;;;;;;4.15;1.30;;;;;;;;;;4981053;28;20128;-72
2021/05/08 09:07:28;;;;;;;3.80;1.40;;;;;;;;;;4978207;28;20050;-72
2021/05/08 09:09:55;;;;;;;4.68;1.55;;;;;;;;;;4975530;28;20054;-72
2021/05/08 09:12:26;;;;;;;6.32;1.40;;;;;;;;;;4979444;28;20062;-72
2021/05/08 09:14:54;;;;;;;5.72;1.83;;;;;;;;;;4981929;28;20069;-72
2021/05/08 09:17:22;;;;;;;3.80;1.45;;;;;;;;;;4997506;28;20058;-71
2021/05/08 09:19:56;;;;;;;4.28;1.40;;;;;;;;;;4980687;28;20130;-71
2021/05/08 09:22:30;;;;;;;4.53;1.45;;;;;;;;;;4979496;28;20066;-72
2021/05/08 09:24:59;;;;;;;4.03;1.50;;;;;;;;;;4980661;28;20117;-73
2021/05/08 09:27:35;;;;;;;4.70;1.52;;;;;;;;;;4983570;28;20066;-72
2021/05/08 09:30:06;;;;;;;3.50;1.52;;;;;;;;;;4980021;28;20640;-71
2021/05/08 09:32:39;;;;;;;4.63;1.38;;;;;;;;;;4982871;28;20134;-72
2021/05/08 09:35:10;;;;;;;3.42;1.50;;;;;;;;;;4982042;28;20066;-72
2021/05/08 09:37:37;;;;;;;4.23;1.47;;;;;;;;;;4992812;28;20193;-72
2021/05/08 09:40:20;;;;;;;4.88;1.58;;;;;;;;;;4980213;28;20062;-72
2021/05/08 09:42:54;;;;;;;5.97;1.60;;;;;;;;;;4981679;28;20066;-72
2021/05/08 09:45:21;;;;;;;4.45;1.33;;;;;;;;;;4980288;28;20121;-72
2021/05/08 09:47:48;;;;;;;4.88;1.50;;;;;;;;;;4980602;28;20156;-73
2021/05/08 09:50:15;;;;;;;3.78;1.50;;;;;;;;;;4981901;28;20062;-72
2021/05/08 09:52:42;;;;;;;2.67;1.40;;;;;;;;;;4978786;28;20527;-72
2021/05/08 09:55:09;;;;;;;3.05;1.40;;;;;;;;;;4980946;28;20132;-72
2021/05/08 09:57:35;;;;;;;3.58;1.20;;;;;;;;;;4980206;28;20128;-73
2021/05/08 10:00:02;;;;;;;2.90;1.40;;;;;;;;;;4978722;28;20070;-72
2021/05/08 10:02:28;;;;;;;3.28;1.15;;;;;;;;;;4982472;28;20119;-72
2021/05/08 10:04:58;;;;;;;6.03;1.73;;;;;;;;;;4998789;28;20054;-72
2021/05/08 10:07:28;;;;;;;4.10;1.40;;;;;;;;;;4983512;28;20073;-72
2021/05/08 10:09:57;;;;;;;3.17;1.23;;;;;;;;;;4984560;28;20073;-72
2021/05/08 10:12:24;;;;;;;4.78;1.38;;;;;;;;;;4985568;28;20094;-72
2021/05/08 10:14:52;;;;;;;3.70;1.13;;;;;;;;;;4981077;28;20218;-72
2021/05/08 10:17:25;;;;;;;3.90;1.17;;;;;;;;;;4977826;28;20057;-72
2021/05/08 10:19:52;;;;;;;5.57;1.48;;;;;;;;;;4985160;28;20217;-72
2021/05/08 10:22:19;;;;;;;2.60;1.50;;;;;;;;;;4986799;28;20734;-72
2021/05/08 10:24:46;;;;;;;2.20;1.15;;;;;;;;;;4982599;28;20132;-72
2021/05/08 10:27:13;;;;;;;3.38;1.33;;;;;;;;;;4982539;28;20136;-73
2021/05/08 10:29:41;;;;;;;3.38;1.20;;;;;;;;;;4982004;28;20113;-72
2021/05/08 10:32:09;;;;;;;2.83;1.20;;;;;;;;;;4982989;28;20066;-72
2021/05/08 10:34:39;;;;;;;2.83;1.45;;;;;;;;;;4980144;28;20085;-73
2021/05/08 10:37:12;;;;;;;3.45;1.55;;;;;;;;;;4999629;28;20125;-73
2021/05/08 10:39:51;;;;;;;3.00;1.30;;;;;;;;;;4983133;28;20083;-73
2021/05/08 10:42:32;;;;;;;2.90;1.40;;;;;;;;;;4984197;28;20215;-73
2021/05/08 10:44:59;;;;;;;;;;;;;;;;;;4982886;28;20312;-73
2021/05/08 10:47:25;;;;;;;2.92;1.42;;;;;;;;;;4984504;28;20043;-73
2021/05/08 10:50:14;;;;;;;1.77;1.17;;;;;;;;;;4982718;28;20077;-73
2021/05/08 10:52:59;;;;;;;3.38;1.33;;;;;;;;;;4983965;28;20061;-74
2021/05/08 10:55:25;;;;;;;2.70;1.40;;;;;;;;;;4982383;28;20058;-72
2021/05/08 10:58:10;;;;;;;3.38;1.27;;;;;;;;;;4982829;28;25037;-72
2021/05/08 11:00:44;;;;;;;4.20;1.40;;;;;;;;;;4981259;28;20820;-72
2021/05/08 11:03:10;;;;;;;2.83;1.42;;;;;;;;;;4983505;28;20074;-72
2021/05/08 11:05:39;;;;;;;3.15;1.30;;;;;;;;;;4984678;28;20050;-72
2021/05/08 11:08:24;;;;;;;3.20;1.30;;;;;;;;;;4983832;28;20054;-72
2021/05/08 11:11:01;;;;;;;3.35;1.40;;;;;;;;;;4982008;28;20054;-72
2021/05/08 11:13:28;;;;;;;5.60;1.30;;;;;;;;;;4982822;28;21088;-72
2021/05/08 11:15:55;;;;;;;3.65;1.50;;;;;;;;;;4978513;28;20042;-72
2021/05/08 11:18:31;;;;;;;2.80;1.50;;;;;;;;;;4983272;28;20054;-71
2021/05/08 11:21:01;;;;;;;5.32;1.35;;;;;;;;;;4982835;28;20066;-72
2021/05/08 11:23:40;;;;;;;1.88;1.10;;;;;;;;;;4989306;28;20116;-72
2021/05/08 11:28:48;;;;;;;;;;;;;;;;;;4983537;28;20062;-72
2021/05/08 11:31:22;;;;;;;3.70;1.33;;;;;;;;;;4984737;28;20033;-72
2021/05/08 11:33:48;;;;;;;3.75;1.17;;;;;;;;;;4979843;28;20078;-71
2021/05/08 11:36:15;;;;;;;3.75;1.52;;;;;;;;;;4982859;28;20074;-71
2021/05/08 11:38:41;;;;;;;4.35;1.45;;;;;;;;;;4981962;28;20124;-72
2021/05/08 11:41:24;;;;;;;3.95;1.38;;;;;;;;;;4982917;28;20125;-72
2021/05/08 11:43:52;;;;;;;2.50;1.25;;;;;;;;;;4996321;28;20861;-72
2021/05/08 11:46:29;;;;;;;2.22;1.10;;;;;;;;;;4983075;28;20085;-72
2021/05/08 11:48:55;;;;;;;3.38;1.48;;;;;;;;;;4980349;28;20063;-72
2021/05/08 11:51:22;;;;;;;3.53;1.30;;;;;;;;;;4983448;28;20107;-72
2021/05/08 11:54:06;;;;;;;4.57;1.40;;;;;;;;;;4983005;28;20046;-72
2021/05/08 11:56:34;;;;;;;3.63;1.40;;;;;;;;;;4979811;28;20066;-73
2021/05/08 11:59:01;;;;;;;4.60;1.30;;;;;;;;;;4981792;28;20054;-71
2021/05/08 12:01:31;;;;;;;3.08;1.50;;;;;;;;;;4982704;28;20054;-71
2021/05/08 12:03:58;;;;;;;4.80;1.50;;;;;;;;;;4973589;28;20118;-71
2021/05/08 12:06:25;;;;;;;5.30;1.70;;;;;;;;;;4982016;28;20058;-71
2021/05/08 12:08:52;;;;;;;3.28;1.30;;;;;;;;;;4980935;28;20148;-71
2021/05/08 12:11:20;;;;;;;3.00;1.38;;;;;;;;;;4984034;28;20543;-72
2021/05/08 12:13:46;;;;;;;3.42;1.40;;;;;;;;;;4979628;28;20099;-71
2021/05/08 12:16:13;;;;;;;3.75;1.40;;;;;;;;;;4975966;28;20125;-70
2021/05/08 12:18:40;;;;;;;3.83;1.40;;;;;;;;;;4980032;28;20076;-72
2021/05/08 12:21:07;;;;;;;3.78;1.25;;;;;;;;;;4982888;28;20069;-69
2021/05/08 12:23:35;;;;;;;2.70;1.20;;;;;;;;;;4981576;28;20098;-70
2021/05/08 12:26:17;;;;;;;2.88;1.20;;;;;;;;;;4976421;28;20501;-70
2021/05/08 12:28:46;;;;;;;3.17;1.17;;;;;;;;;;4980825;28;20571;-73
2021/05/08 12:31:19;;;;;;;4.00;1.30;;;;;;;;;;4977503;28;20055;-73
2021/05/08 12:33:46;;;;;;;4.32;1.17;;;;;;;;;;4980834;28;20105;-73
2021/05/08 12:36:13;;;;;;;3.85;1.40;;;;;;;;;;4982491;28;20541;-71
2021/05/08 12:38:40;;;;;;;2.72;1.10;;;;;;;;;;4980580;28;20128;-71
2021/05/08 12:41:25;;;;;;;2.78;1.20;;;;;;;;;;4981888;28;20054;-71
2021/05/08 12:43:51;;;;;;;3.65;1.40;;;;;;;;;;4978786;28;20152;-72
2021/05/08 12:46:18;;;;;;;3.90;1.20;;;;;;;;;;4979490;28;20058;-71
2021/05/08 12:48:44;;;;;;;4.25;1.30;;;;;;;;;;4982766;28;20062;-72
2021/05/08 12:51:26;;;;;;;4.03;1.40;;;;;;;;;;4980016;28;20070;-71
2021/05/08 12:54:11;;;;;;;3.72;1.35;;;;;;;;;;4982321;28;21983;-72
2021/05/08 12:56:37;;;;;;;4.20;1.60;;;;;;;;;;4982302;28;20077;-72
2021/05/08 12:59:04;;;;;;;2.75;1.17;;;;;;;;;;4982357;28;20144;-71
2021/05/08 13:01:30;;;;;;;2.60;1.27;;;;;;;;;;4973751;28;20114;-71
2021/05/08 13:03:57;;;;;;;3.15;1.30;;;;;;;;;;4980986;28;20100;-71
2021/05/08 13:06:26;;;;;;;4.65;1.23;;;;;;;;;;4975381;28;20069;-72
2021/05/08 13:08:53;;;;;;;2.38;1.30;;;;;;;;;;4980040;28;20065;-72
2021/05/08 13:11:38;;;;;;;3.47;1.13;;;;;;;;;;4979499;28;20447;-72
2021/05/08 13:14:16;;;;;;;2.55;1.00;;;;;;;;;;4982546;28;20034;-73
2021/05/08 13:16:43;;;;;;;3.50;1.20;;;;;;;;;;4979953;28;20062;-72
2021/05/08 13:19:09;;;;;;;3.03;1.20;;;;;;;;;;4981662;28;20069;-72
2021/05/08 13:21:36;;;;;;;2.92;1.20;;;;;;;;;;4978163;28;20062;-71
2021/05/08 13:24:03;;;;;;;3.00;1.40;;;;;;;;;;4982925;28;20070;-71
2021/05/08 13:26:29;;;;;;;2.15;1.40;;;;;;;;;;4979879;28;20034;-72
2021/05/08 13:28:56;;;;;;;2.30;1.13;;;;;;;;;;4982177;28;20149;-72
2021/05/08 13:31:22;;;;;;;3.55;1.27;;;;;;;;;;4980074;28;20109;-72
2021/05/08 13:33:49;;;;;;;2.50;1.02;;;;;;;;;;4976768;28;20074;-72
2021/05/08 13:36:19;;;;;;;2.78;1.10;;;;;;;;;;4981134;28;20058;-72
2021/05/08 13:38:49;;;;;;;3.38;1.20;;;;;;;;;;4983311;28;20509;-72
2021/05/08 13:41:16;;;;;;;2.80;1.08;;;;;;;;;;4986049;28;20069;-72
2021/05/08 13:43:42;;;;;;;2.20;1.00;;;;;;;;;;4982978;28;20081;-72
2021/05/08 13:46:09;;;;;;;2.17;1.27;;;;;;;;;;5001564;28;20058;-72
2021/05/08 13:48:37;;;;;;;2.22;0.90;;;;;;;;;;4978419;28;20069;-72
2021/05/08 13:51:04;;;;;;;1.90;1.20;;;;;;;;;;4985600;28;20038;-71
2021/05/08 13:53:30;;;;;;;2.78;1.17;;;;;;;;;;4985906;28;20066;-71
2021/05/08 13:55:57;;;;;;;5.78;1.20;;;;;;;;;;4984385;28;20141;-72
2021/05/08 13:58:23;;;;;;;2.00;1.08;;;;;;;;;;4984647;28;20070;-71
2021/05/08 14:00:50;;;;;;;2.28;1.10;;;;;;;;;;4985292;28;22879;-72
2021/05/08 14:03:17;;;;;;;2.75;1.02;;;;;;;;;;4974930;28;20581;-71
2021/05/08 14:05:43;;;;;;;2.10;1.02;;;;;;;;;;4982854;28;20039;-71
2021/05/08 14:08:09;;;;;;;2.95;1.00;;;;;;;;;;4982464;28;20128;-73
2021/05/08 14:10:36;;;;;;;2.00;0.98;;;;;;;;;;4984954;28;20058;-74
2021/05/08 14:13:02;;;;;;;3.45;1.20;;;;;;;;;;4986142;28;20089;-73
2021/05/08 14:15:29;;;;;;;5.03;1.45;;;;;;;;;;4986404;28;20046;-74
2021/05/08 14:17:55;;;;;;;2.20;1.10;;;;;;;;;;5001191;28;20066;-73
2021/05/08 14:20:21;;;;;;;3.03;1.10;;;;;;;;;;4983877;28;20581;-73
2021/05/08 14:22:48;;;;;;;3.28;1.15;;;;;;;;;;4982853;28;20140;-73
2021/05/08 14:25:15;;;;;;;3.75;1.20;;;;;;;;;;4985478;28;20073;-73
2021/05/08 14:27:41;;;;;;;3.28;1.20;;;;;;;;;;4983075;28;20093;-73
2021/05/08 14:30:12;;;;;;;2.53;1.30;;;;;;;;;;4986495;28;20038;-73
2021/05/08 14:32:48;;;;;;;3.05;1.00;;;;;;;;;;4983589;28;20577;-73
2021/05/08 14:35:14;;;;;;;3.42;0.93;;;;;;;;;;4986392;28;20034;-73
2021/05/08 14:37:41;;;;;;;3.05;1.27;;;;;;;;;;4983379;28;20069;-73
2021/05/08 14:40:08;;;;;;;2.53;1.17;;;;;;;;;;4984429;28;20073;-73
2021/05/08 14:42:35;;;;;;;2.25;1.00;;;;;;;;;;4984304;28;20057;-72
2021/05/08 14:45:03;;;;;;;2.58;1.00;;;;;;;;;;4980280;28;20122;-72
2021/05/08 14:47:29;;;;;;;2.90;0.82;;;;;;;;;;4999715;28;20134;-73
2021/05/08 14:49:56;;;;;;;2.63;1.00;;;;;;;;;;4984662;28;20082;-73